This is the latest recevied weather packets stored in our database for station/object W7PLC. If no packets are shown the sender has not sent any weather packets the latest 10 day(s).
| Time | Temp. | Humidity | Pressure | Rain* | Wind** | Luminosity | Snow |
|---|---|---|---|---|---|---|---|
| 1777825346 | 20.56° C | 61% | 1012.4 hPa | 0 mm | - | 375 W/m² | - |
| 1777825042 | 20° C | 60% | 1012.5 hPa | 0 mm | - | 363 W/m² | - |
| 1777824738 | 20° C | 61% | 1012.5 hPa | 0 mm | - | 314 W/m² | - |
| 1777824131 | 20.56° C | 60% | 1012.3 hPa | 0 mm | - | 314 W/m² | - |
| 1777822617 | 19.44° C | 60% | 1012.3 hPa | 0 mm | - | 257 W/m² | - |
| 1777822315 | 19.44° C | 62% | 1012.4 hPa | 0 mm | - | 263 W/m² | - |
| 1777821710 | 18.33° C | 65% | 1012.5 hPa | 0 mm | - | 32 W/m² | - |
| 1777821407 | 17.22° C | 67% | 1012.3 hPa | 0 mm | - | 31 W/m² | - |
| 1777821104 | 17.22° C | 70% | 1012.5 hPa | 0 mm | - | 29 W/m² | - |
| 1777820497 | 16.11° C | 75% | 1012.4 hPa | 0 mm | - | 27 W/m² | - |
| 1777819589 | 14.44° C | 81% | 1012.2 hPa | 0 mm | - | 24 W/m² | - |
| 1777818983 | 13.33° C | 84% | 1012.3 hPa | 0 mm | - | 22 W/m² | - |
| 1777818680 | 12.78° C | 86% | 1012.2 hPa | 0 mm | - | 21 W/m² | - |
| 1777818377 | 12.78° C | 87% | 1012.1 hPa | 0 mm | - | 20 W/m² | - |
| 1777817770 | 11.67° C | 89% | 1012.2 hPa | 0 mm | - | 18 W/m² | - |
| 1777817468 | 11.67° C | 90% | 1012.4 hPa | 0 mm | - | 17 W/m² | - |
| 1777816861 | 10.56° C | 92% | 1012.1 hPa | 0 mm | - | 15 W/m² | - |
| 1777816558 | 10.56° C | 93% | 1012.1 hPa | 0 mm | - | 13 W/m² | - |
| 1777813831 | 10° C | 96% | 1012 hPa | 0 mm | - | 4 W/m² | - |
| 1777806259 | 10.56° C | 92% | 1012.3 hPa | 0 mm | - | 0 W/m² | - |
| 1777804443 | 11.11° C | 91% | 1012.1 hPa | 0 mm | - | 0 W/m² | - |
| 1777803532 | 11.11° C | 91% | 1012.4 hPa | 0 mm | - | 0 W/m² | - |
| 1777802927 | 11.11° C | 90% | 1012.3 hPa | 0 mm | - | 0 W/m² | - |
| 1777802625 | 11.11° C | 90% | 1012.4 hPa | 0 mm | - | 0 W/m² | - |
| 1777801111 | 11.67° C | 90% | 1012.3 hPa | 0 mm | - | 0 W/m² | - |
* Rain latest hour (hover to see other rain measurements)
** Current wind speed in m/s (hover to see current wind gust speed)